Terminal Aerodrome Forecast
Issued by NWS Upton, NY

Home | Current Version | Previous Version | Text Only | Print | Product List | Glossary On
Versions: 1 2 3 4 5 6 7 8 9 10 11 12 13 14 15 16 17 18 19 20 21 22 23 24 25 26 27 28 29 30 31 32 33 34 35 36
000
FTUS41 KOKX 032300
TAFJFK
TAF
KJFK 032328Z 0400/0506 17010KT 2SM -FZRAPLSN BKN004 OVC010
     FM040100 18013KT 2SM RA OVC004
     FM040600 24012KT 3SM -SHRA BR OVC004 WS020/25050KT
     FM041100 26009KT 3SM -RA BR OVC008
     FM041700 26008KT 5SM -RA BR BKN008 BKN050
     FM050000 27005KT 4SM -RA BR OVC008=

USA.gov is the U.S. government's official web portal to all federal, state and local government web resources and services.